sensor_id;sensor_type;location;lat;lon;timestamp;pressure;altitude;pressure_sealevel;temperature;humidity
8637;BME280;4356;49.068;8.658;2022-08-04T00:00:44;99563.03;;;31.28;33.52
8637;BME280;4356;49.068;8.658;2022-08-04T00:06:02;99571.69;;;31.27;33.55
8637;BME280;4356;49.068;8.658;2022-08-04T00:10:55;99557.91;;;31.22;33.87
8637;BME280;4356;49.068;8.658;2022-08-04T00:13:24;99559.88;;;31.21;33.78
8637;BME280;4356;49.068;8.658;2022-08-04T00:15:57;99558.53;;;31.19;33.74
8637;BME280;4356;49.068;8.658;2022-08-04T00:18:26;99558.34;;;31.15;33.63
8637;BME280;4356;49.068;8.658;2022-08-04T00:20:58;99564.75;;;31.16;33.65
8637;BME280;4356;49.068;8.658;2022-08-04T00:23:25;99557.53;;;31.15;33.72
8637;BME280;4356;49.068;8.658;2022-08-04T00:25:52;99564.22;;;31.14;33.71
8637;BME280;4356;49.068;8.658;2022-08-04T00:28:18;99558.47;;;31.10;33.82
8637;BME280;4356;49.068;8.658;2022-08-04T00:30:45;99554.38;;;31.08;34.00
8637;BME280;4356;49.068;8.658;2022-08-04T00:33:12;99569.59;;;31.10;33.87
8637;BME280;4356;49.068;8.658;2022-08-04T00:35:43;99568.25;;;31.08;33.82
8637;BME280;4356;49.068;8.658;2022-08-04T00:38:09;99566.09;;;31.05;33.71
8637;BME280;4356;49.068;8.658;2022-08-04T00:43:31;99573.59;;;31.04;33.72
8637;BME280;4356;49.068;8.658;2022-08-04T00:54:19;99572.72;;;30.95;34.03
8637;BME280;4356;49.068;8.658;2022-08-04T00:59:30;99575.81;;;30.94;34.27
8637;BME280;4356;49.068;8.658;2022-08-04T01:20:32;99575.78;;;30.80;34.23
8637;BME280;4356;49.068;8.658;2022-08-04T01:28:41;99577.84;;;30.75;34.27
8637;BME280;4356;49.068;8.658;2022-08-04T01:31:47;99576.72;;;30.76;34.06
8637;BME280;4356;49.068;8.658;2022-08-04T01:34:15;99574.59;;;30.73;34.09
8637;BME280;4356;49.068;8.658;2022-08-04T01:36:52;99570.78;;;30.69;34.39
8637;BME280;4356;49.068;8.658;2022-08-04T01:39:21;99565.56;;;30.67;33.84
8637;BME280;4356;49.068;8.658;2022-08-04T01:42:07;99567.19;;;30.68;34.14
8637;BME280;4356;49.068;8.658;2022-08-04T01:44:34;99556.53;;;30.62;34.33
8637;BME280;4356;49.068;8.658;2022-08-04T01:47:00;99565.56;;;30.67;34.40
8637;BME280;4356;49.068;8.658;2022-08-04T01:49:31;99560.28;;;30.66;34.17
8637;BME280;4356;49.068;8.658;2022-08-04T01:51:57;99554.84;;;30.61;34.47
8637;BME280;4356;49.068;8.658;2022-08-04T01:54:23;99553.75;;;30.62;34.32
8637;BME280;4356;49.068;8.658;2022-08-04T01:56:50;99550.78;;;30.58;34.14
8637;BME280;4356;49.068;8.658;2022-08-04T01:59:18;99563.19;;;30.61;34.19
8637;BME280;4356;49.068;8.658;2022-08-04T02:01:44;99548.28;;;30.57;34.12
8637;BME280;4356;49.068;8.658;2022-08-04T02:04:18;99559.38;;;30.57;34.19
8637;BME280;4356;49.068;8.658;2022-08-04T02:13:02;99546.13;;;30.54;34.08
8637;BME280;4356;49.068;8.658;2022-08-04T02:20:48;99548.19;;;30.48;34.26
8637;BME280;4356;49.068;8.658;2022-08-04T02:23:18;99545.22;;;30.45;34.50
8637;BME280;4356;49.068;8.658;2022-08-04T02:25:55;99548.50;;;30.47;34.37
8637;BME280;4356;49.068;8.658;2022-08-04T02:28:39;99550.78;;;30.45;34.19
8637;BME280;4356;49.068;8.658;2022-08-04T02:31:30;99555.81;;;30.43;34.52
8637;BME280;4356;49.068;8.658;2022-08-04T02:36:37;99559.72;;;30.42;34.20
8637;BME280;4356;49.068;8.658;2022-08-04T02:39:05;99554.50;;;30.40;34.61
8637;BME280;4356;49.068;8.658;2022-08-04T02:41:32;99550.88;;;30.40;34.59
8637;BME280;4356;49.068;8.658;2022-08-04T02:44:00;99547.59;;;30.38;34.39
8637;BME280;4356;49.068;8.658;2022-08-04T02:46:26;99545.84;;;30.28;34.38
8637;BME280;4356;49.068;8.658;2022-08-04T02:48:53;99546.56;;;30.33;34.35
8637;BME280;4356;49.068;8.658;2022-08-04T02:51:26;99548.22;;;30.34;34.47
8637;BME280;4356;49.068;8.658;2022-08-04T02:53:54;99546.06;;;30.31;34.71
8637;BME280;4356;49.068;8.658;2022-08-04T02:56:21;99545.25;;;30.31;34.37
8637;BME280;4356;49.068;8.658;2022-08-04T02:59:13;99548.81;;;30.31;34.62
8637;BME280;4356;49.068;8.658;2022-08-04T03:04:56;99552.22;;;30.28;34.63
8637;BME280;4356;49.068;8.658;2022-08-04T03:13:38;99548.19;;;30.21;34.48
8637;BME280;4356;49.068;8.658;2022-08-04T03:25:13;99543.56;;;30.16;34.77
8637;BME280;4356;49.068;8.658;2022-08-04T03:33:56;99546.16;;;30.13;34.55
8637;BME280;4356;49.068;8.658;2022-08-04T03:45:41;99543.44;;;30.08;34.56
8637;BME280;4356;49.068;8.658;2022-08-04T03:56:47;99541.63;;;30.03;34.85
8637;BME280;4356;49.068;8.658;2022-08-04T03:59:27;99541.41;;;30.00;34.64
8637;BME280;4356;49.068;8.658;2022-08-04T04:15:50;99558.94;;;29.95;34.87
8637;BME280;4356;49.068;8.658;2022-08-04T04:38:06;99563.53;;;29.86;35.18
8637;BME280;4356;49.068;8.658;2022-08-04T04:48:59;99558.41;;;29.80;35.22
8637;BME280;4356;49.068;8.658;2022-08-04T04:54:44;99573.09;;;29.80;35.29
8637;BME280;4356;49.068;8.658;2022-08-04T04:57:17;99568.97;;;29.78;35.13
8637;BME280;4356;49.068;8.658;2022-08-04T05:00:10;99579.44;;;29.81;35.11
8637;BME280;4356;49.068;8.658;2022-08-04T05:02:57;99570.59;;;29.79;34.95
8637;BME280;4356;49.068;8.658;2022-08-04T05:16:19;99572.88;;;29.77;35.33
8637;BME280;4356;49.068;8.658;2022-08-04T05:18:56;99574.81;;;29.76;35.51
8637;BME280;4356;49.068;8.658;2022-08-04T05:21:38;99583.13;;;29.76;35.45
8637;BME280;4356;49.068;8.658;2022-08-04T05:24:08;99580.34;;;29.76;35.29
8637;BME280;4356;49.068;8.658;2022-08-04T05:26:39;99585.91;;;29.76;35.49
8637;BME280;4356;49.068;8.658;2022-08-04T05:29:12;99585.91;;;29.76;35.36
8637;BME280;4356;49.068;8.658;2022-08-04T05:31:46;99588.66;;;29.76;35.39
8637;BME280;4356;49.068;8.658;2022-08-04T05:34:23;99589.50;;;29.77;35.60
8637;BME280;4356;49.068;8.658;2022-08-04T05:36:54;99588.16;;;29.74;35.63
8637;BME280;4356;49.068;8.658;2022-08-04T05:39:23;99588.34;;;29.78;35.81
8637;BME280;4356;49.068;8.658;2022-08-04T05:41:49;99588.03;;;29.79;35.43
8637;BME280;4356;49.068;8.658;2022-08-04T05:44:21;99593.91;;;29.78;35.44
8637;BME280;4356;49.068;8.658;2022-08-04T05:46:51;99583.72;;;29.73;35.20
8637;BME280;4356;49.068;8.658;2022-08-04T05:49:20;99592.75;;;29.79;35.72
8637;BME280;4356;49.068;8.658;2022-08-04T05:51:47;99591.66;;;29.80;35.71
8637;BME280;4356;49.068;8.658;2022-08-04T05:54:14;99588.88;;;29.80;35.64
8637;BME280;4356;49.068;8.658;2022-08-04T05:56:41;99592.47;;;29.80;35.41
8637;BME280;4356;49.068;8.658;2022-08-04T05:59:09;99597.19;;;29.80;35.44
8637;BME280;4356;49.068;8.658;2022-08-04T06:01:37;99599.84;;;29.85;35.68
8637;BME280;4356;49.068;8.658;2022-08-04T06:04:04;99601.00;;;29.84;35.42
8637;BME280;4356;49.068;8.658;2022-08-04T06:06:33;99607.88;;;29.86;35.25
8637;BME280;4356;49.068;8.658;2022-08-04T06:08:59;99601.81;;;29.84;35.41
8637;BME280;4356;49.068;8.658;2022-08-04T06:11:26;99604.28;;;29.86;35.43
8637;BME280;4356;49.068;8.658;2022-08-04T06:13:56;99592.69;;;29.84;35.55
8637;BME280;4356;49.068;8.658;2022-08-04T06:16:24;99600.38;;;29.87;35.47
8637;BME280;4356;49.068;8.658;2022-08-04T06:18:53;99597.91;;;29.85;35.93
8637;BME280;4356;49.068;8.658;2022-08-04T06:21:23;99598.75;;;29.86;35.88
8637;BME280;4356;49.068;8.658;2022-08-04T06:23:54;99605.91;;;29.87;35.63
8637;BME280;4356;49.068;8.658;2022-08-04T06:26:24;99597.91;;;29.85;35.61
8637;BME280;4356;49.068;8.658;2022-08-04T06:28:50;99601.22;;;29.87;35.51
8637;BME280;4356;49.068;8.658;2022-08-04T06:31:18;99605.09;;;29.86;35.43
8637;BME280;4356;49.068;8.658;2022-08-04T06:34:07;99606.97;;;29.91;35.58
8637;BME280;4356;49.068;8.658;2022-08-04T06:36:34;99600.06;;;29.88;35.56
8637;BME280;4356;49.068;8.658;2022-08-04T06:39:02;99611.06;;;29.93;35.32
8637;BME280;4356;49.068;8.658;2022-08-04T06:41:29;99590.72;;;29.84;35.37
8637;BME280;4356;49.068;8.658;2022-08-04T06:43:58;99604.94;;;29.96;35.37
8637;BME280;4356;49.068;8.658;2022-08-04T06:46:26;99604.94;;;29.96;35.25
8637;BME280;4356;49.068;8.658;2022-08-04T06:48:52;99611.28;;;29.97;35.39
8637;BME280;4356;49.068;8.658;2022-08-04T06:51:20;99609.31;;;29.97;35.15
8637;BME280;4356;49.068;8.658;2022-08-04T06:53:46;99610.06;;;30.03;35.33
8637;BME280;4356;49.068;8.658;2022-08-04T06:56:13;99613.97;;;30.02;35.43
8637;BME280;4356;49.068;8.658;2022-08-04T06:58:41;99616.63;;;30.07;35.47
8637;BME280;4356;49.068;8.658;2022-08-04T07:01:08;99590.13;;;30.01;35.45
8637;BME280;4356;49.068;8.658;2022-08-04T07:03:35;99611.63;;;30.09;35.36
8637;BME280;4356;49.068;8.658;2022-08-04T07:06:01;99617.97;;;30.09;34.95
8637;BME280;4356;49.068;8.658;2022-08-04T07:08:27;99610.69;;;30.13;34.65
8637;BME280;4356;49.068;8.658;2022-08-04T07:10:53;99606.50;;;30.16;34.74
8637;BME280;4356;49.068;8.658;2022-08-04T07:13:21;99605.03;;;30.18;34.64
8637;BME280;4356;49.068;8.658;2022-08-04T07:15:48;99598.91;;;30.21;34.35
8637;BME280;4356;49.068;8.658;2022-08-04T07:18:15;99604.97;;;30.23;34.36
8637;BME280;4356;49.068;8.658;2022-08-04T07:20:45;99596.44;;;30.20;33.92
8637;BME280;4356;49.068;8.658;2022-08-04T07:23:12;99595.22;;;30.26;33.84
8637;BME280;4356;49.068;8.658;2022-08-04T07:25:42;99603.47;;;30.31;33.81
8637;BME280;4356;49.068;8.658;2022-08-04T07:28:08;99599.25;;;30.33;34.08
8637;BME280;4356;49.068;8.658;2022-08-04T07:30:34;99594.53;;;30.34;33.96
8637;BME280;4356;49.068;8.658;2022-08-04T07:33:01;99599.66;;;30.41;33.85
8637;BME280;4356;49.068;8.658;2022-08-04T07:35:28;99594.94;;;30.41;33.88
8637;BME280;4356;49.068;8.658;2022-08-04T07:37:54;99593.00;;;30.42;34.09
8637;BME280;4356;49.068;8.658;2022-08-04T07:40:20;99602.84;;;30.48;34.16
8637;BME280;4356;49.068;8.658;2022-08-04T07:42:46;99601.41;;;30.50;33.94
8637;BME280;4356;49.068;8.658;2022-08-04T07:45:11;99592.56;;;30.48;33.63
8637;BME280;4356;49.068;8.658;2022-08-04T07:47:37;99594.44;;;30.53;33.86
8637;BME280;4356;49.068;8.658;2022-08-04T07:50:08;99603.97;;;30.60;33.33
8637;BME280;4356;49.068;8.658;2022-08-04T07:52:35;99611.69;;;30.63;33.74
8637;BME280;4356;49.068;8.658;2022-08-04T07:55:02;99598.94;;;30.62;33.51
8637;BME280;4356;49.068;8.658;2022-08-04T07:57:28;99605.81;;;30.65;33.45
8637;BME280;4356;49.068;8.658;2022-08-04T07:59:54;99606.00;;;30.68;33.51
8637;BME280;4356;49.068;8.658;2022-08-04T08:02:19;99606.53;;;30.70;33.93
8637;BME280;4356;49.068;8.658;2022-08-04T08:04:47;99611.13;;;30.75;33.95
8637;BME280;4356;49.068;8.658;2022-08-04T08:07:12;99611.66;;;30.77;33.65
8637;BME280;4356;49.068;8.658;2022-08-04T08:09:38;99611.06;;;30.80;33.63
8637;BME280;4356;49.068;8.658;2022-08-04T08:12:05;99615.16;;;30.82;33.93
8637;BME280;4356;49.068;8.658;2022-08-04T08:14:32;99611.47;;;30.87;33.65
8637;BME280;4356;49.068;8.658;2022-08-04T08:16:59;99605.09;;;30.86;33.42
8637;BME280;4356;49.068;8.658;2022-08-04T08:19:30;99613.81;;;30.93;33.26
8637;BME280;4356;49.068;8.658;2022-08-04T08:21:57;99607.66;;;30.96;33.42
8637;BME280;4356;49.068;8.658;2022-08-04T08:24:23;99600.66;;;30.99;33.12
8637;BME280;4356;49.068;8.658;2022-08-04T08:26:48;99602.50;;;31.03;33.21
8637;BME280;4356;49.068;8.658;2022-08-04T08:29:15;99601.88;;;31.06;32.53
8637;BME280;4356;49.068;8.658;2022-08-04T08:31:40;99598.78;;;31.08;32.86
8637;BME280;4356;49.068;8.658;2022-08-04T08:34:09;99595.09;;;31.12;33.12
8637;BME280;4356;49.068;8.658;2022-08-04T08:36:40;99601.34;;;31.18;32.46
8637;BME280;4356;49.068;8.658;2022-08-04T08:39:16;99599.88;;;31.20;32.64
8637;BME280;4356;49.068;8.658;2022-08-04T08:45:31;99594.38;;;31.29;32.88
8637;BME280;4356;49.068;8.658;2022-08-04T08:53:15;99608.59;;;31.41;32.52
8637;BME280;4356;49.068;8.658;2022-08-04T08:59:00;99606.06;;;31.53;32.23
8637;BME280;4356;49.068;8.658;2022-08-04T09:18:06;99615.25;;;31.84;31.98
8637;BME280;4356;49.068;8.658;2022-08-04T09:20:55;99610.44;;;31.90;32.38
8637;BME280;4356;49.068;8.658;2022-08-04T09:26:33;99607.69;;;31.98;31.77
8637;BME280;4356;49.068;8.658;2022-08-04T09:29:09;99608.88;;;32.06;31.89
8637;BME280;4356;49.068;8.658;2022-08-04T09:37:06;99605.19;;;32.19;31.74
8637;BME280;4356;49.068;8.658;2022-08-04T09:39:59;99609.50;;;32.25;31.80
8637;BME280;4356;49.068;8.658;2022-08-04T09:42:40;99598.53;;;32.28;31.60
8637;BME280;4356;49.068;8.658;2022-08-04T09:45:32;99597.88;;;32.31;31.93
8637;BME280;4356;49.068;8.658;2022-08-04T09:48:16;99594.97;;;32.37;31.76
8637;BME280;4356;49.068;8.658;2022-08-04T09:50:49;99595.97;;;32.41;31.43
8637;BME280;4356;49.068;8.658;2022-08-04T09:53:41;99596.16;;;32.44;31.45
8637;BME280;4356;49.068;8.658;2022-08-04T09:56:31;99599.13;;;32.48;31.08
8637;BME280;4356;49.068;8.658;2022-08-04T10:01:35;99596.03;;;32.58;31.16
8637;BME280;4356;49.068;8.658;2022-08-04T10:04:07;99595.25;;;32.66;30.82
8637;BME280;4356;49.068;8.658;2022-08-04T10:07:01;99604.78;;;32.73;31.04
8637;BME280;4356;49.068;8.658;2022-08-04T10:09:59;99591.53;;;32.79;30.96
8637;BME280;4356;49.068;8.658;2022-08-04T10:13:13;99581.06;;;32.84;30.62
8637;BME280;4356;49.068;8.658;2022-08-04T10:18:54;99577.97;;;32.94;30.41
8637;BME280;4356;49.068;8.658;2022-08-04T10:21:44;99579.16;;;33.02;30.19
8637;BME280;4356;49.068;8.658;2022-08-04T10:24:35;99577.34;;;33.06;30.09
8637;BME280;4356;49.068;8.658;2022-08-04T10:27:11;99567.22;;;33.10;29.64
8637;BME280;4356;49.068;8.658;2022-08-04T10:29:45;99566.53;;;33.13;29.84
8637;BME280;4356;49.068;8.658;2022-08-04T10:32:35;99570.81;;;33.19;29.57
8637;BME280;4356;49.068;8.658;2022-08-04T10:40:22;99563.44;;;33.32;29.24
8637;BME280;4356;49.068;8.658;2022-08-04T10:43:14;99562.78;;;33.35;29.03
8637;BME280;4356;49.068;8.658;2022-08-04T10:45:55;99559.47;;;33.41;29.10
8637;BME280;4356;49.068;8.658;2022-08-04T10:48:42;99559.84;;;33.48;28.89
8637;BME280;4356;49.068;8.658;2022-08-04T10:53:59;99557.38;;;33.55;28.47
8637;BME280;4356;49.068;8.658;2022-08-04T10:56:40;99552.75;;;33.59;27.96
8637;BME280;4356;49.068;8.658;2022-08-04T10:59:15;99547.84;;;33.65;28.32
8637;BME280;4356;49.068;8.658;2022-08-04T11:01:43;99555.72;;;33.71;28.24
8637;BME280;4356;49.068;8.658;2022-08-04T11:04:24;99556.69;;;33.75;27.98
8637;BME280;4356;49.068;8.658;2022-08-04T11:06:51;99544.88;;;33.78;27.73
8637;BME280;4356;49.068;8.658;2022-08-04T11:09:17;99549.44;;;33.83;27.89
8637;BME280;4356;49.068;8.658;2022-08-04T11:11:48;99541.22;;;33.86;27.28
8637;BME280;4356;49.068;8.658;2022-08-04T11:14:30;99548.75;;;33.94;27.66
8637;BME280;4356;49.068;8.658;2022-08-04T11:17:05;99540.38;;;33.94;27.43
8637;BME280;4356;49.068;8.658;2022-08-04T11:22:44;99547.72;;;34.16;27.42
8637;BME280;4356;49.068;8.658;2022-08-04T11:25:17;99541.16;;;34.20;26.94
8637;BME280;4356;49.068;8.658;2022-08-04T11:30:44;99544.03;;;34.33;27.03
8637;BME280;4356;49.068;8.658;2022-08-04T11:33:41;99541.88;;;34.38;26.38
8637;BME280;4356;49.068;8.658;2022-08-04T11:36:19;99543.63;;;34.43;26.48
8637;BME280;4356;49.068;8.658;2022-08-04T11:38:50;99539.53;;;34.49;25.88
8637;BME280;4356;49.068;8.658;2022-08-04T11:41:44;99544.91;;;34.54;25.61
8637;BME280;4356;49.068;8.658;2022-08-04T11:44:17;99538.34;;;34.58;25.76
8637;BME280;4356;49.068;8.658;2022-08-04T11:46:50;99528.47;;;34.61;25.15
8637;BME280;4356;49.068;8.658;2022-08-04T11:49:34;99537.13;;;34.68;25.63
8637;BME280;4356;49.068;8.658;2022-08-04T11:52:04;99531.22;;;34.69;25.27
8637;BME280;4356;49.068;8.658;2022-08-04T11:54:32;99526.59;;;34.73;25.43
8637;BME280;4356;49.068;8.658;2022-08-04T11:56:58;99526.75;;;34.77;25.88
8637;BME280;4356;49.068;8.658;2022-08-04T11:59:26;99517.31;;;34.81;25.99
8637;BME280;4356;49.068;8.658;2022-08-04T12:02:01;99522.34;;;34.88;25.64
8637;BME280;4356;49.068;8.658;2022-08-04T12:04:44;99522.53;;;34.91;25.28
8637;BME280;4356;49.068;8.658;2022-08-04T12:07:33;99523.63;;;34.99;25.69
8637;BME280;4356;49.068;8.658;2022-08-04T12:13:09;99507.94;;;35.06;25.46
8637;BME280;4356;49.068;8.658;2022-08-04T12:15:52;99510.53;;;35.11;25.81
8637;BME280;4356;49.068;8.658;2022-08-04T12:18:22;99510.66;;;35.15;25.82
8637;BME280;4356;49.068;8.658;2022-08-04T12:20:56;99511.97;;;35.17;25.54
8637;BME280;4356;49.068;8.658;2022-08-04T12:23:35;99499.16;;;35.16;25.30
8637;BME280;4356;49.068;8.658;2022-08-04T12:26:05;99504.53;;;35.21;25.21
8637;BME280;4356;49.068;8.658;2022-08-04T12:28:34;99505.69;;;35.20;25.81
8637;BME280;4356;49.068;8.658;2022-08-04T12:31:06;99512.56;;;35.23;24.94
8637;BME280;4356;49.068;8.658;2022-08-04T12:33:39;99508.59;;;35.24;25.32
8637;BME280;4356;49.068;8.658;2022-08-04T12:39:25;99489.88;;;35.24;25.18
8637;BME280;4356;49.068;8.658;2022-08-04T12:42:09;99495.94;;;35.27;25.18
8637;BME280;4356;49.068;8.658;2022-08-04T12:44:40;99488.72;;;35.26;25.48
8637;BME280;4356;49.068;8.658;2022-08-04T12:47:10;99496.06;;;35.30;25.42
8637;BME280;4356;49.068;8.658;2022-08-04T12:49:38;99483.28;;;35.29;25.44
8637;BME280;4356;49.068;8.658;2022-08-04T12:52:07;99487.34;;;35.32;25.52
8637;BME280;4356;49.068;8.658;2022-08-04T12:54:33;99489.78;;;35.33;25.43
8637;BME280;4356;49.068;8.658;2022-08-04T12:57:06;99491.09;;;35.36;25.21
8637;BME280;4356;49.068;8.658;2022-08-04T12:59:58;99491.56;;;35.38;24.89
8637;BME280;4356;49.068;8.658;2022-08-04T13:02:24;99489.25;;;35.40;25.28
8637;BME280;4356;49.068;8.658;2022-08-04T13:04:52;99491.69;;;35.41;24.92
8637;BME280;4356;49.068;8.658;2022-08-04T13:07:22;99474.44;;;35.39;24.79
8637;BME280;4356;49.068;8.658;2022-08-04T13:09:49;99492.66;;;35.45;25.33
8637;BME280;4356;49.068;8.658;2022-08-04T13:12:25;99479.84;;;35.44;25.46
8637;BME280;4356;49.068;8.658;2022-08-04T13:15:20;99480.78;;;35.48;25.05
8637;BME280;4356;49.068;8.658;2022-08-04T13:20:44;99475.31;;;35.52;25.38
8637;BME280;4356;49.068;8.658;2022-08-04T13:23:14;99471.84;;;35.55;25.08
8637;BME280;4356;49.068;8.658;2022-08-04T13:25:41;99465.78;;;35.53;25.43
8637;BME280;4356;49.068;8.658;2022-08-04T13:28:14;99473.59;;;35.59;25.15
8637;BME280;4356;49.068;8.658;2022-08-04T13:30:43;99473.72;;;35.63;25.52
8637;BME280;4356;49.068;8.658;2022-08-04T13:33:12;99460.09;;;35.61;24.96
8637;BME280;4356;49.068;8.658;2022-08-04T13:35:44;99470.56;;;35.64;24.62
8637;BME280;4356;49.068;8.658;2022-08-04T13:38:12;99455.56;;;35.69;24.75
8637;BME280;4356;49.068;8.658;2022-08-04T13:40:40;99456.41;;;35.69;24.55
8637;BME280;4356;49.068;8.658;2022-08-04T13:43:07;99449.63;;;35.70;24.41
8637;BME280;4356;49.068;8.658;2022-08-04T13:45:35;99444.97;;;35.74;24.15
8637;BME280;4356;49.068;8.658;2022-08-04T13:48:02;99443.81;;;35.75;24.18
8637;BME280;4356;49.068;8.658;2022-08-04T13:50:30;99451.50;;;35.78;24.61
8637;BME280;4356;49.068;8.658;2022-08-04T13:52:58;99437.19;;;35.80;25.12
8637;BME280;4356;49.068;8.658;2022-08-04T13:55:33;99433.22;;;35.81;24.77
8637;BME280;4356;49.068;8.658;2022-08-04T13:58:22;99434.16;;;35.85;24.39
8637;BME280;4356;49.068;8.658;2022-08-04T14:00:58;99438.56;;;35.86;24.94
8637;BME280;4356;49.068;8.658;2022-08-04T14:03:37;99428.34;;;35.90;25.23
8637;BME280;4356;49.068;8.658;2022-08-04T14:08:47;99439.28;;;35.95;24.70
8637;BME280;4356;49.068;8.658;2022-08-04T14:11:15;99429.63;;;35.92;24.54
8637;BME280;4356;49.068;8.658;2022-08-04T14:17:12;99425.44;;;35.98;24.88
8637;BME280;4356;49.068;8.658;2022-08-04T14:19:57;99417.19;;;36.02;24.31
8637;BME280;4356;49.068;8.658;2022-08-04T14:22:34;99412.72;;;36.01;24.83
8637;BME280;4356;49.068;8.658;2022-08-04T14:27:52;99417.72;;;36.07;24.04
8637;BME280;4356;49.068;8.658;2022-08-04T14:30:28;99405.03;;;36.10;24.33
8637;BME280;4356;49.068;8.658;2022-08-04T14:33:05;99412.72;;;36.13;24.44
8637;BME280;4356;49.068;8.658;2022-08-04T14:35:31;99403.19;;;36.14;24.17
8637;BME280;4356;49.068;8.658;2022-08-04T14:37:59;99406.44;;;36.16;23.89
8637;BME280;4356;49.068;8.658;2022-08-04T14:43:57;99393.03;;;36.22;24.05
8637;BME280;4356;49.068;8.658;2022-08-04T14:46:24;99397.78;;;36.21;24.36
8637;BME280;4356;49.068;8.658;2022-08-04T14:52:23;99383.56;;;36.26;24.43
8637;BME280;4356;49.068;8.658;2022-08-04T14:54:51;99380.75;;;36.26;23.73
8637;BME280;4356;49.068;8.658;2022-08-04T14:57:17;99383.66;;;36.30;24.17
8637;BME280;4356;49.068;8.658;2022-08-04T14:59:44;99386.94;;;36.32;25.12
8637;BME280;4356;49.068;8.658;2022-08-04T15:02:12;99379.81;;;36.34;24.67
8637;BME280;4356;49.068;8.658;2022-08-04T15:04:38;99380.78;;;36.38;23.91
8637;BME280;4356;49.068;8.658;2022-08-04T15:07:05;99382.88;;;36.41;24.29
8637;BME280;4356;49.068;8.658;2022-08-04T15:09:32;99381.69;;;36.42;24.65
8637;BME280;4356;49.068;8.658;2022-08-04T15:11:58;99383.78;;;36.45;24.33
8637;BME280;4356;49.068;8.658;2022-08-04T15:14:24;99376.19;;;36.46;24.03
8637;BME280;4356;49.068;8.658;2022-08-04T15:16:50;99365.00;;;36.46;24.06
8637;BME280;4356;49.068;8.658;2022-08-04T15:19:15;99377.94;;;36.50;24.23
8637;BME280;4356;49.068;8.658;2022-08-04T15:21:41;99371.97;;;36.52;23.70
8637;BME280;4356;49.068;8.658;2022-08-04T15:24:07;99362.41;;;36.53;24.10
8637;BME280;4356;49.068;8.658;2022-08-04T15:26:37;99365.66;;;36.55;23.63
8637;BME280;4356;49.068;8.658;2022-08-04T15:29:15;99367.78;;;36.58;23.66
8637;BME280;4356;49.068;8.658;2022-08-04T15:31:45;99363.31;;;36.57;23.98
8637;BME280;4356;49.068;8.658;2022-08-04T15:34:12;99363.91;;;36.62;24.33
8637;BME280;4356;49.068;8.658;2022-08-04T15:36:57;99372.75;;;36.64;24.30
8637;BME280;4356;49.068;8.658;2022-08-04T15:42:20;99364.81;;;36.66;23.30
8637;BME280;4356;49.068;8.658;2022-08-04T15:45:13;99364.00;;;36.66;23.67
8637;BME280;4356;49.068;8.658;2022-08-04T15:47:41;99364.47;;;36.68;24.20
8637;BME280;4356;49.068;8.658;2022-08-04T15:50:09;99361.66;;;36.68;23.48
8637;BME280;4356;49.068;8.658;2022-08-04T15:53:10;99361.75;;;36.71;23.84
8637;BME280;4356;49.068;8.658;2022-08-04T15:55:40;99352.56;;;36.71;23.53
8637;BME280;4356;49.068;8.658;2022-08-04T15:58:09;99344.97;;;36.71;23.55
8637;BME280;4356;49.068;8.658;2022-08-04T16:06:40;99342.25;;;36.75;22.94
8637;BME280;4356;49.068;8.658;2022-08-04T16:09:07;99344.25;;;36.74;22.74
8637;BME280;4356;49.068;8.658;2022-08-04T16:22:38;99325.56;;;36.78;22.63
8637;BME280;4356;49.068;8.658;2022-08-04T16:32:23;99323.13;;;36.77;22.70
8637;BME280;4356;49.068;8.658;2022-08-04T16:35:03;99326.75;;;36.77;22.54
8637;BME280;4356;49.068;8.658;2022-08-04T16:37:36;99313.56;;;36.78;22.68
8637;BME280;4356;49.068;8.658;2022-08-04T16:42:56;99314.72;;;36.77;22.38
8637;BME280;4356;49.068;8.658;2022-08-04T16:45:53;99309.22;;;36.80;22.91
8637;BME280;4356;49.068;8.658;2022-08-04T16:48:26;99309.94;;;36.77;22.69
8637;BME280;4356;49.068;8.658;2022-08-04T16:50:55;99303.97;;;36.79;22.19
8637;BME280;4356;49.068;8.658;2022-08-04T16:53:27;99310.84;;;36.81;22.32
8637;BME280;4356;49.068;8.658;2022-08-04T16:55:56;99312.38;;;36.79;22.33
8637;BME280;4356;49.068;8.658;2022-08-04T16:58:35;99307.59;;;36.79;22.00
8637;BME280;4356;49.068;8.658;2022-08-04T17:01:12;99310.84;;;36.81;21.84
8637;BME280;4356;49.068;8.658;2022-08-04T17:03:40;99314.44;;;36.82;22.41
8637;BME280;4356;49.068;8.658;2022-08-04T17:06:13;99310.84;;;36.81;22.42
8637;BME280;4356;49.068;8.658;2022-08-04T17:08:43;99302.34;;;36.78;22.29
8637;BME280;4356;49.068;8.658;2022-08-04T17:11:10;99308.41;;;36.80;22.41
8637;BME280;4356;49.068;8.658;2022-08-04T17:13:39;99305.63;;;36.80;22.20
8637;BME280;4356;49.068;8.658;2022-08-04T17:16:12;99303.06;;;36.75;22.02
8637;BME280;4356;49.068;8.658;2022-08-04T17:18:45;99300.72;;;36.77;22.50
8637;BME280;4356;49.068;8.658;2022-08-04T17:21:18;99306.69;;;36.75;22.44
8637;BME280;4356;49.068;8.658;2022-08-04T17:23:48;99304.25;;;36.74;22.19
8637;BME280;4356;49.068;8.658;2022-08-04T17:26:18;99304.97;;;36.71;22.20
8637;BME280;4356;49.068;8.658;2022-08-04T17:28:47;99308.09;;;36.69;22.30
8637;BME280;4356;49.068;8.658;2022-08-04T17:31:14;99303.22;;;36.66;21.94
8637;BME280;4356;49.068;8.658;2022-08-04T17:33:44;99298.34;;;36.63;22.05
8637;BME280;4356;49.068;8.658;2022-08-04T17:36:11;99304.28;;;36.62;22.14
8637;BME280;4356;49.068;8.658;2022-08-04T17:38:43;99288.00;;;36.52;22.11
8637;BME280;4356;49.068;8.658;2022-08-04T17:41:11;99294.91;;;36.54;21.86
8637;BME280;4356;49.068;8.658;2022-08-04T17:48:55;99301.81;;;36.45;22.44
8637;BME280;4356;49.068;8.658;2022-08-04T17:51:21;99294.81;;;36.39;22.55
8637;BME280;4356;49.068;8.658;2022-08-04T17:53:55;99295.41;;;36.32;23.10
8637;BME280;4356;49.068;8.658;2022-08-04T17:56:42;99306.97;;;36.31;23.31
8637;BME280;4356;49.068;8.658;2022-08-04T17:59:29;99300.44;;;36.27;23.43
8637;BME280;4356;49.068;8.658;2022-08-04T18:02:05;99303.50;;;36.22;23.55
8637;BME280;4356;49.068;8.658;2022-08-04T18:07:37;99306.41;;;36.13;23.94
8637;BME280;4356;49.068;8.658;2022-08-04T18:10:04;99307.50;;;36.08;24.23
8637;BME280;4356;49.068;8.658;2022-08-04T18:12:33;99307.75;;;36.03;24.54
8637;BME280;4356;49.068;8.658;2022-08-04T18:17:40;99315.09;;;35.96;24.92
8637;BME280;4356;49.068;8.658;2022-08-04T18:20:12;99310.91;;;35.90;25.37
8637;BME280;4356;49.068;8.658;2022-08-04T18:22:40;99312.72;;;35.86;25.43
8637;BME280;4356;49.068;8.658;2022-08-04T18:25:07;99314.16;;;35.80;25.42
8637;BME280;4356;49.068;8.658;2022-08-04T18:27:33;99310.06;;;35.77;25.46